sensor_id;sensor_type;location;lat;lon;timestamp;P1;durP1;ratioP1;P2;durP2;ratioP2
24153;SDS011;12312;53.362;-1.518;2023-02-18T00:01:21;2.70;;;2.50;;
24153;SDS011;12312;53.362;-1.518;2023-02-18T00:03:49;3.42;;;2.38;;
24153;SDS011;12312;53.362;-1.518;2023-02-18T00:06:17;2.63;;;2.38;;
24153;SDS011;12312;53.362;-1.518;2023-02-18T00:08:46;2.22;;;2.03;;
24153;SDS011;12312;53.362;-1.518;2023-02-18T00:11:12;2.13;;;1.92;;
24153;SDS011;12312;53.362;-1.518;2023-02-18T00:13:38;2.53;;;2.33;;
24153;SDS011;12312;53.362;-1.518;2023-02-18T00:16:04;2.28;;;2.08;;
24153;SDS011;12312;53.362;-1.518;2023-02-18T00:18:32;2.03;;;1.88;;
24153;SDS011;12312;53.362;-1.518;2023-02-18T00:20:58;3.05;;;2.75;;
24153;SDS011;12312;53.362;-1.518;2023-02-18T00:23:24;2.65;;;2.28;;
24153;SDS011;12312;53.362;-1.518;2023-02-18T00:25:57;3.80;;;2.00;;
24153;SDS011;12312;53.362;-1.518;2023-02-18T00:28:29;1.90;;;1.80;;
24153;SDS011;12312;53.362;-1.518;2023-02-18T00:30:56;1.80;;;1.50;;
24153;SDS011;12312;53.362;-1.518;2023-02-18T00:33:21;1.92;;;1.50;;
24153;SDS011;12312;53.362;-1.518;2023-02-18T00:35:47;1.98;;;1.80;;
24153;SDS011;12312;53.362;-1.518;2023-02-18T00:38:13;1.80;;;1.52;;
24153;SDS011;12312;53.362;-1.518;2023-02-18T00:40:39;2.38;;;1.50;;
24153;SDS011;12312;53.362;-1.518;2023-02-18T00:43:06;2.20;;;1.63;;
24153;SDS011;12312;53.362;-1.518;2023-02-18T00:45:36;3.72;;;1.70;;
24153;SDS011;12312;53.362;-1.518;2023-02-18T00:48:01;1.50;;;1.40;;
24153;SDS011;12312;53.362;-1.518;2023-02-18T00:50:27;1.67;;;1.30;;
24153;SDS011;12312;53.362;-1.518;2023-02-18T00:52:55;2.08;;;1.25;;
24153;SDS011;12312;53.362;-1.518;2023-02-18T00:55:21;1.50;;;1.20;;
24153;SDS011;12312;53.362;-1.518;2023-02-18T00:57:49;1.70;;;1.55;;
24153;SDS011;12312;53.362;-1.518;2023-02-18T01:00:15;2.22;;;1.70;;
24153;SDS011;12312;53.362;-1.518;2023-02-18T01:02:43;3.47;;;1.70;;
24153;SDS011;12312;53.362;-1.518;2023-02-18T01:05:08;3.58;;;1.85;;
24153;SDS011;12312;53.362;-1.518;2023-02-18T01:07:34;2.67;;;1.48;;
24153;SDS011;12312;53.362;-1.518;2023-02-18T01:09:59;2.90;;;1.58;;
24153;SDS011;12312;53.362;-1.518;2023-02-18T01:12:28;2.20;;;1.42;;
24153;SDS011;12312;53.362;-1.518;2023-02-18T01:14:54;3.00;;;1.60;;
24153;SDS011;12312;53.362;-1.518;2023-02-18T01:17:24;2.75;;;1.50;;
24153;SDS011;12312;53.362;-1.518;2023-02-18T01:19:49;5.05;;;1.80;;
24153;SDS011;12312;53.362;-1.518;2023-02-18T01:22:16;2.72;;;1.60;;
24153;SDS011;12312;53.362;-1.518;2023-02-18T01:24:45;5.93;;;1.95;;
24153;SDS011;12312;53.362;-1.518;2023-02-18T01:27:10;2.97;;;1.50;;
24153;SDS011;12312;53.362;-1.518;2023-02-18T01:29:36;6.95;;;1.58;;
24153;SDS011;12312;53.362;-1.518;2023-02-18T01:32:02;3.42;;;1.50;;
24153;SDS011;12312;53.362;-1.518;2023-02-18T01:34:28;3.25;;;1.15;;
24153;SDS011;12312;53.362;-1.518;2023-02-18T01:36:54;7.43;;;2.00;;
24153;SDS011;12312;53.362;-1.518;2023-02-18T01:39:21;3.97;;;1.50;;
24153;SDS011;12312;53.362;-1.518;2023-02-18T01:41:48;5.78;;;1.40;;
24153;SDS011;12312;53.362;-1.518;2023-02-18T01:44:20;5.03;;;1.80;;
24153;SDS011;12312;53.362;-1.518;2023-02-18T01:46:49;4.25;;;1.10;;
24153;SDS011;12312;53.362;-1.518;2023-02-18T01:49:20;6.75;;;2.15;;
24153;SDS011;12312;53.362;-1.518;2023-02-18T01:52:02;12.38;;;3.13;;
24153;SDS011;12312;53.362;-1.518;2023-02-18T01:54:38;10.30;;;2.30;;
24153;SDS011;12312;53.362;-1.518;2023-02-18T02:00:12;5.80;;;2.20;;
24153;SDS011;12312;53.362;-1.518;2023-02-18T02:02:49;9.98;;;2.38;;
24153;SDS011;12312;53.362;-1.518;2023-02-18T02:05:20;7.95;;;2.40;;
24153;SDS011;12312;53.362;-1.518;2023-02-18T02:07:46;7.15;;;2.05;;
24153;SDS011;12312;53.362;-1.518;2023-02-18T02:10:15;5.93;;;1.80;;
24153;SDS011;12312;53.362;-1.518;2023-02-18T02:13:00;6.93;;;1.80;;
24153;SDS011;12312;53.362;-1.518;2023-02-18T02:15:44;4.60;;;1.90;;
24153;SDS011;12312;53.362;-1.518;2023-02-18T02:37:01;6.63;;;1.35;;
24153;SDS011;12312;53.362;-1.518;2023-02-18T02:42:38;6.50;;;1.30;;
24153;SDS011;12312;53.362;-1.518;2023-02-18T02:45:36;5.60;;;1.65;;
24153;SDS011;12312;53.362;-1.518;2023-02-18T02:48:27;5.90;;;1.65;;
24153;SDS011;12312;53.362;-1.518;2023-02-18T02:51:24;6.10;;;1.40;;
24153;SDS011;12312;53.362;-1.518;2023-02-18T02:54:13;10.80;;;2.47;;
24153;SDS011;12312;53.362;-1.518;2023-02-18T02:56:39;6.15;;;1.75;;
24153;SDS011;12312;53.362;-1.518;2023-02-18T02:59:11;14.00;;;1.90;;
24153;SDS011;12312;53.362;-1.518;2023-02-18T03:04:32;15.70;;;2.90;;
24153;SDS011;12312;53.362;-1.518;2023-02-18T03:07:50;8.38;;;1.60;;
24153;SDS011;12312;53.362;-1.518;2023-02-18T03:19:28;14.43;;;2.30;;
24153;SDS011;12312;53.362;-1.518;2023-02-18T03:22:07;15.30;;;2.67;;
24153;SDS011;12312;53.362;-1.518;2023-02-18T03:24:41;11.35;;;2.53;;
24153;SDS011;12312;53.362;-1.518;2023-02-18T03:27:15;12.35;;;3.35;;
24153;SDS011;12312;53.362;-1.518;2023-02-18T03:29:45;14.25;;;2.40;;
24153;SDS011;12312;53.362;-1.518;2023-02-18T03:32:17;16.42;;;2.38;;
24153;SDS011;12312;53.362;-1.518;2023-02-18T03:34:47;9.13;;;2.00;;
24153;SDS011;12312;53.362;-1.518;2023-02-18T03:37:17;11.85;;;2.20;;
24153;SDS011;12312;53.362;-1.518;2023-02-18T03:39:51;9.95;;;1.73;;
24153;SDS011;12312;53.362;-1.518;2023-02-18T03:42:27;13.27;;;2.45;;
24153;SDS011;12312;53.362;-1.518;2023-02-18T03:44:53;15.27;;;1.83;;
24153;SDS011;12312;53.362;-1.518;2023-02-18T03:47:23;11.52;;;1.67;;
24153;SDS011;12312;53.362;-1.518;2023-02-18T03:49:49;7.53;;;1.90;;
24153;SDS011;12312;53.362;-1.518;2023-02-18T03:52:16;11.80;;;2.38;;
24153;SDS011;12312;53.362;-1.518;2023-02-18T03:54:43;9.30;;;1.48;;
24153;SDS011;12312;53.362;-1.518;2023-02-18T03:57:09;4.82;;;1.00;;
24153;SDS011;12312;53.362;-1.518;2023-02-18T03:59:35;4.18;;;1.20;;
24153;SDS011;12312;53.362;-1.518;2023-02-18T04:02:00;4.47;;;1.33;;
24153;SDS011;12312;53.362;-1.518;2023-02-18T04:04:26;6.00;;;1.52;;
24153;SDS011;12312;53.362;-1.518;2023-02-18T04:06:58;6.85;;;1.45;;
24153;SDS011;12312;53.362;-1.518;2023-02-18T04:09:26;1.48;;;1.20;;
24153;SDS011;12312;53.362;-1.518;2023-02-18T04:11:51;7.32;;;1.35;;
24153;SDS011;12312;53.362;-1.518;2023-02-18T04:14:20;8.93;;;1.48;;
24153;SDS011;12312;53.362;-1.518;2023-02-18T04:16:49;4.03;;;1.15;;
24153;SDS011;12312;53.362;-1.518;2023-02-18T04:19:15;1.75;;;0.73;;
24153;SDS011;12312;53.362;-1.518;2023-02-18T04:21:42;4.25;;;1.00;;
24153;SDS011;12312;53.362;-1.518;2023-02-18T04:24:09;3.45;;;1.05;;
24153;SDS011;12312;53.362;-1.518;2023-02-18T04:26:35;2.90;;;0.88;;
24153;SDS011;12312;53.362;-1.518;2023-02-18T04:29:00;3.95;;;0.85;;
24153;SDS011;12312;53.362;-1.518;2023-02-18T04:31:30;3.35;;;0.73;;
24153;SDS011;12312;53.362;-1.518;2023-02-18T04:33:55;2.67;;;0.70;;
24153;SDS011;12312;53.362;-1.518;2023-02-18T04:36:21;6.45;;;1.00;;
24153;SDS011;12312;53.362;-1.518;2023-02-18T04:38:46;4.20;;;0.80;;
24153;SDS011;12312;53.362;-1.518;2023-02-18T04:41:12;4.03;;;0.90;;
24153;SDS011;12312;53.362;-1.518;2023-02-18T04:43:37;1.75;;;0.77;;
24153;SDS011;12312;53.362;-1.518;2023-02-18T04:46:06;1.90;;;0.80;;
24153;SDS011;12312;53.362;-1.518;2023-02-18T04:48:31;3.17;;;0.90;;
24153;SDS011;12312;53.362;-1.518;2023-02-18T04:50:57;2.13;;;0.65;;
24153;SDS011;12312;53.362;-1.518;2023-02-18T04:53:23;3.08;;;0.90;;
24153;SDS011;12312;53.362;-1.518;2023-02-18T04:55:51;5.85;;;1.48;;
24153;SDS011;12312;53.362;-1.518;2023-02-18T04:58:19;3.78;;;0.82;;
24153;SDS011;12312;53.362;-1.518;2023-02-18T05:00:47;5.05;;;1.88;;
24153;SDS011;12312;53.362;-1.518;2023-02-18T05:03:15;4.30;;;1.80;;
24153;SDS011;12312;53.362;-1.518;2023-02-18T05:05:42;7.40;;;2.97;;
24153;SDS011;12312;53.362;-1.518;2023-02-18T05:08:11;9.07;;;4.20;;
24153;SDS011;12312;53.362;-1.518;2023-02-18T05:10:37;13.82;;;6.40;;
24153;SDS011;12312;53.362;-1.518;2023-02-18T05:13:03;11.50;;;5.07;;
24153;SDS011;12312;53.362;-1.518;2023-02-18T05:15:29;22.08;;;10.52;;
24153;SDS011;12312;53.362;-1.518;2023-02-18T05:17:57;19.73;;;8.15;;
24153;SDS011;12312;53.362;-1.518;2023-02-18T05:20:23;21.63;;;10.30;;
24153;SDS011;12312;53.362;-1.518;2023-02-18T05:22:48;13.25;;;5.78;;
24153;SDS011;12312;53.362;-1.518;2023-02-18T05:25:15;15.73;;;5.70;;
24153;SDS011;12312;53.362;-1.518;2023-02-18T05:27:41;10.27;;;4.80;;
24153;SDS011;12312;53.362;-1.518;2023-02-18T05:30:06;13.20;;;6.47;;
24153;SDS011;12312;53.362;-1.518;2023-02-18T05:32:33;9.60;;;4.75;;
24153;SDS011;12312;53.362;-1.518;2023-02-18T05:34:59;16.52;;;7.57;;
24153;SDS011;12312;53.362;-1.518;2023-02-18T05:37:25;17.08;;;8.20;;
24153;SDS011;12312;53.362;-1.518;2023-02-18T05:39:50;14.38;;;6.80;;
24153;SDS011;12312;53.362;-1.518;2023-02-18T05:42:16;6.63;;;2.90;;
24153;SDS011;12312;53.362;-1.518;2023-02-18T05:44:42;5.80;;;3.17;;
24153;SDS011;12312;53.362;-1.518;2023-02-18T05:47:09;7.85;;;3.00;;
24153;SDS011;12312;53.362;-1.518;2023-02-18T05:49:37;5.38;;;3.03;;
24153;SDS011;12312;53.362;-1.518;2023-02-18T05:52:07;6.63;;;2.85;;
24153;SDS011;12312;53.362;-1.518;2023-02-18T05:54:34;13.07;;;6.85;;
24153;SDS011;12312;53.362;-1.518;2023-02-18T05:57:00;11.63;;;5.28;;
24153;SDS011;12312;53.362;-1.518;2023-02-18T05:59:26;7.85;;;3.78;;
24153;SDS011;12312;53.362;-1.518;2023-02-18T06:01:55;9.90;;;5.47;;
24153;SDS011;12312;53.362;-1.518;2023-02-18T06:04:21;7.28;;;3.85;;
24153;SDS011;12312;53.362;-1.518;2023-02-18T06:06:50;12.80;;;5.72;;
24153;SDS011;12312;53.362;-1.518;2023-02-18T06:09:16;9.75;;;4.80;;
24153;SDS011;12312;53.362;-1.518;2023-02-18T06:11:42;10.82;;;5.47;;
24153;SDS011;12312;53.362;-1.518;2023-02-18T06:14:08;6.10;;;3.30;;
24153;SDS011;12312;53.362;-1.518;2023-02-18T06:16:33;5.85;;;2.15;;
24153;SDS011;12312;53.362;-1.518;2023-02-18T06:19:02;2.65;;;1.70;;
24153;SDS011;12312;53.362;-1.518;2023-02-18T06:21:28;3.13;;;2.00;;
24153;SDS011;12312;53.362;-1.518;2023-02-18T06:23:54;2.50;;;1.70;;
24153;SDS011;12312;53.362;-1.518;2023-02-18T06:26:21;4.47;;;1.90;;
24153;SDS011;12312;53.362;-1.518;2023-02-18T06:28:48;4.03;;;1.70;;
24153;SDS011;12312;53.362;-1.518;2023-02-18T06:31:14;3.05;;;1.75;;
24153;SDS011;12312;53.362;-1.518;2023-02-18T06:33:39;3.38;;;1.70;;
24153;SDS011;12312;53.362;-1.518;2023-02-18T06:36:05;1.67;;;1.58;;
24153;SDS011;12312;53.362;-1.518;2023-02-18T06:38:38;3.53;;;1.80;;
24153;SDS011;12312;53.362;-1.518;2023-02-18T06:41:05;3.80;;;1.67;;
24153;SDS011;12312;53.362;-1.518;2023-02-18T06:43:31;2.70;;;1.90;;
24153;SDS011;12312;53.362;-1.518;2023-02-18T06:45:57;4.40;;;2.10;;
24153;SDS011;12312;53.362;-1.518;2023-02-18T06:48:23;4.40;;;2.13;;
24153;SDS011;12312;53.362;-1.518;2023-02-18T06:50:52;6.38;;;2.08;;
24153;SDS011;12312;53.362;-1.518;2023-02-18T06:53:17;4.70;;;1.70;;
24153;SDS011;12312;53.362;-1.518;2023-02-18T06:55:44;4.25;;;1.83;;
24153;SDS011;12312;53.362;-1.518;2023-02-18T06:58:12;7.60;;;1.67;;
24153;SDS011;12312;53.362;-1.518;2023-02-18T07:00:39;6.90;;;1.67;;
24153;SDS011;12312;53.362;-1.518;2023-02-18T07:03:06;4.03;;;1.73;;
24153;SDS011;12312;53.362;-1.518;2023-02-18T07:05:32;8.38;;;1.52;;
24153;SDS011;12312;53.362;-1.518;2023-02-18T07:08:00;4.13;;;1.45;;
24153;SDS011;12312;53.362;-1.518;2023-02-18T07:10:27;7.63;;;1.38;;
24153;SDS011;12312;53.362;-1.518;2023-02-18T07:12:53;5.20;;;1.50;;
24153;SDS011;12312;53.362;-1.518;2023-02-18T07:15:19;7.75;;;1.85;;
24153;SDS011;12312;53.362;-1.518;2023-02-18T07:17:51;7.15;;;2.00;;
24153;SDS011;12312;53.362;-1.518;2023-02-18T07:20:19;5.70;;;1.50;;
24153;SDS011;12312;53.362;-1.518;2023-02-18T07:22:46;8.23;;;1.67;;
24153;SDS011;12312;53.362;-1.518;2023-02-18T07:25:12;6.90;;;1.50;;
24153;SDS011;12312;53.362;-1.518;2023-02-18T07:27:38;9.10;;;1.50;;
24153;SDS011;12312;53.362;-1.518;2023-02-18T07:30:05;8.27;;;1.90;;
24153;SDS011;12312;53.362;-1.518;2023-02-18T07:32:32;6.90;;;1.88;;
24153;SDS011;12312;53.362;-1.518;2023-02-18T07:34:59;7.60;;;1.55;;
24153;SDS011;12312;53.362;-1.518;2023-02-18T07:37:25;6.40;;;1.30;;
24153;SDS011;12312;53.362;-1.518;2023-02-18T07:39:50;6.78;;;1.52;;
24153;SDS011;12312;53.362;-1.518;2023-02-18T07:42:17;8.88;;;1.60;;
24153;SDS011;12312;53.362;-1.518;2023-02-18T07:44:42;11.68;;;1.77;;
24153;SDS011;12312;53.362;-1.518;2023-02-18T07:47:09;7.68;;;1.83;;
24153;SDS011;12312;53.362;-1.518;2023-02-18T07:49:41;7.38;;;1.38;;
24153;SDS011;12312;53.362;-1.518;2023-02-18T07:52:08;10.75;;;2.00;;
24153;SDS011;12312;53.362;-1.518;2023-02-18T07:54:37;9.68;;;2.03;;
24153;SDS011;12312;53.362;-1.518;2023-02-18T07:57:21;12.20;;;1.75;;
24153;SDS011;12312;53.362;-1.518;2023-02-18T07:59:54;7.47;;;1.92;;
24153;SDS011;12312;53.362;-1.518;2023-02-18T08:02:22;11.50;;;1.77;;
24153;SDS011;12312;53.362;-1.518;2023-02-18T08:04:48;9.80;;;1.70;;
24153;SDS011;12312;53.362;-1.518;2023-02-18T08:07:16;11.63;;;2.08;;
24153;SDS011;12312;53.362;-1.518;2023-02-18T08:09:43;9.07;;;1.38;;
24153;SDS011;12312;53.362;-1.518;2023-02-18T08:12:10;8.68;;;1.65;;
24153;SDS011;12312;53.362;-1.518;2023-02-18T08:14:36;10.18;;;1.70;;
24153;SDS011;12312;53.362;-1.518;2023-02-18T08:17:01;10.00;;;1.63;;
24153;SDS011;12312;53.362;-1.518;2023-02-18T08:19:27;9.45;;;1.92;;
24153;SDS011;12312;53.362;-1.518;2023-02-18T08:21:53;13.15;;;1.52;;
24153;SDS011;12312;53.362;-1.518;2023-02-18T08:28:12;12.30;;;1.77;;
24153;SDS011;12312;53.362;-1.518;2023-02-18T08:30:38;10.95;;;1.65;;
24153;SDS011;12312;53.362;-1.518;2023-02-18T08:33:08;12.70;;;1.95;;
24153;SDS011;12312;53.362;-1.518;2023-02-18T08:35:33;9.13;;;2.15;;
24153;SDS011;12312;53.362;-1.518;2023-02-18T08:38:00;10.85;;;1.88;;
24153;SDS011;12312;53.362;-1.518;2023-02-18T08:40:25;17.48;;;2.25;;
24153;SDS011;12312;53.362;-1.518;2023-02-18T08:42:51;16.70;;;2.53;;
24153;SDS011;12312;53.362;-1.518;2023-02-18T08:45:17;13.52;;;2.30;;
24153;SDS011;12312;53.362;-1.518;2023-02-18T08:47:42;14.02;;;2.33;;
24153;SDS011;12312;53.362;-1.518;2023-02-18T08:50:08;7.40;;;1.70;;
24153;SDS011;12312;53.362;-1.518;2023-02-18T08:52:33;13.20;;;1.90;;
24153;SDS011;12312;53.362;-1.518;2023-02-18T08:54:59;10.80;;;1.95;;
24153;SDS011;12312;53.362;-1.518;2023-02-18T08:57:26;10.68;;;1.98;;
24153;SDS011;12312;53.362;-1.518;2023-02-18T08:59:52;12.98;;;2.17;;
24153;SDS011;12312;53.362;-1.518;2023-02-18T09:02:17;13.52;;;1.77;;
24153;SDS011;12312;53.362;-1.518;2023-02-18T09:04:43;11.48;;;1.48;;
24153;SDS011;12312;53.362;-1.518;2023-02-18T09:07:08;12.13;;;2.28;;
24153;SDS011;12312;53.362;-1.518;2023-02-18T09:09:34;12.38;;;1.63;;
24153;SDS011;12312;53.362;-1.518;2023-02-18T09:11:59;11.38;;;2.03;;
24153;SDS011;12312;53.362;-1.518;2023-02-18T09:14:25;13.02;;;2.47;;
24153;SDS011;12312;53.362;-1.518;2023-02-18T09:16:51;6.38;;;1.38;;
24153;SDS011;12312;53.362;-1.518;2023-02-18T09:19:16;7.63;;;1.27;;
24153;SDS011;12312;53.362;-1.518;2023-02-18T09:21:43;12.77;;;1.70;;
24153;SDS011;12312;53.362;-1.518;2023-02-18T09:24:08;5.68;;;1.10;;
24153;SDS011;12312;53.362;-1.518;2023-02-18T09:26:34;9.77;;;1.60;;
24153;SDS011;12312;53.362;-1.518;2023-02-18T09:29:00;12.48;;;1.60;;
24153;SDS011;12312;53.362;-1.518;2023-02-18T09:31:25;10.98;;;1.80;;
24153;SDS011;12312;53.362;-1.518;2023-02-18T09:33:56;8.32;;;1.60;;
24153;SDS011;12312;53.362;-1.518;2023-02-18T09:36:25;10.68;;;1.50;;
24153;SDS011;12312;53.362;-1.518;2023-02-18T09:38:51;12.50;;;2.15;;
24153;SDS011;12312;53.362;-1.518;2023-02-18T09:44:37;11.05;;;2.53;;
24153;SDS011;12312;53.362;-1.518;2023-02-18T09:47:05;9.70;;;1.55;;
24153;SDS011;12312;53.362;-1.518;2023-02-18T09:49:43;9.60;;;1.75;;
24153;SDS011;12312;53.362;-1.518;2023-02-18T09:52:17;11.52;;;1.70;;
24153;SDS011;12312;53.362;-1.518;2023-02-18T09:54:50;10.35;;;1.48;;
24153;SDS011;12312;53.362;-1.518;2023-02-18T09:57:26;6.22;;;1.40;;
24153;SDS011;12312;53.362;-1.518;2023-02-18T09:59:57;7.82;;;1.63;;
24153;SDS011;12312;53.362;-1.518;2023-02-18T10:02:29;8.65;;;1.27;;
24153;SDS011;12312;53.362;-1.518;2023-02-18T10:04:57;6.70;;;1.10;;
24153;SDS011;12312;53.362;-1.518;2023-02-18T10:07:28;10.23;;;1.48;;
24153;SDS011;12312;53.362;-1.518;2023-02-18T10:10:00;7.35;;;1.40;;
24153;SDS011;12312;53.362;-1.518;2023-02-18T10:12:35;8.95;;;1.73;;
24153;SDS011;12312;53.362;-1.518;2023-02-18T10:15:02;7.13;;;1.40;;
24153;SDS011;12312;53.362;-1.518;2023-02-18T10:17:29;5.57;;;1.52;;
24153;SDS011;12312;53.362;-1.518;2023-02-18T10:19:56;9.85;;;1.80;;
24153;SDS011;12312;53.362;-1.518;2023-02-18T10:22:25;7.70;;;1.48;;
24153;SDS011;12312;53.362;-1.518;2023-02-18T10:24:52;8.02;;;1.63;;
24153;SDS011;12312;53.362;-1.518;2023-02-18T10:27:25;4.85;;;0.88;;
24153;SDS011;12312;53.362;-1.518;2023-02-18T10:30:01;8.25;;;1.20;;
24153;SDS011;12312;53.362;-1.518;2023-02-18T10:32:39;5.45;;;1.38;;
24153;SDS011;12312;53.362;-1.518;2023-02-18T10:35:25;10.27;;;1.20;;
24153;SDS011;12312;53.362;-1.518;2023-02-18T10:38:01;10.48;;;1.52;;
24153;SDS011;12312;53.362;-1.518;2023-02-18T10:43:34;9.20;;;1.20;;
24153;SDS011;12312;53.362;-1.518;2023-02-18T10:51:47;8.85;;;1.38;;
24153;SDS011;12312;53.362;-1.518;2023-02-18T10:54:17;9.77;;;1.60;;
24153;SDS011;12312;53.362;-1.518;2023-02-18T10:56:48;8.32;;;1.27;;
24153;SDS011;12312;53.362;-1.518;2023-02-18T10:59:18;8.55;;;1.40;;
24153;SDS011;12312;53.362;-1.518;2023-02-18T11:01:52;5.38;;;1.10;;
24153;SDS011;12312;53.362;-1.518;2023-02-18T11:04:36;9.80;;;1.35;;
24153;SDS011;12312;53.362;-1.518;2023-02-18T11:07:05;9.73;;;1.73;;
24153;SDS011;12312;53.362;-1.518;2023-02-18T11:09:41;7.95;;;1.27;;
24153;SDS011;12312;53.362;-1.518;2023-02-18T11:14:45;2.72;;;0.90;;
24153;SDS011;12312;53.362;-1.518;2023-02-18T11:17:20;4.78;;;1.20;;
24153;SDS011;12312;53.362;-1.518;2023-02-18T11:19:52;6.43;;;0.95;;
24153;SDS011;12312;53.362;-1.518;2023-02-18T11:22:27;3.20;;;0.90;;
24153;SDS011;12312;53.362;-1.518;2023-02-18T11:25:00;6.28;;;0.75;;
24153;SDS011;12312;53.362;-1.518;2023-02-18T11:30:06;6.15;;;1.08;;
24153;SDS011;12312;53.362;-1.518;2023-02-18T11:32:43;4.50;;;0.80;;
24153;SDS011;12312;53.362;-1.518;2023-02-18T11:35:16;5.50;;;0.93;;
24153;SDS011;12312;53.362;-1.518;2023-02-18T11:37:43;3.92;;;0.70;;
24153;SDS011;12312;53.362;-1.518;2023-02-18T11:40:22;7.38;;;1.00;;
24153;SDS011;12312;53.362;-1.518;2023-02-18T11:43:01;3.70;;;0.90;;
24153;SDS011;12312;53.362;-1.518;2023-02-18T11:45:30;7.68;;;0.90;;
24153;SDS011;12312;53.362;-1.518;2023-02-18T11:48:17;5.22;;;1.08;;
24153;SDS011;12312;53.362;-1.518;2023-02-18T11:50:49;3.25;;;1.05;;
24153;SDS011;12312;53.362;-1.518;2023-02-18T11:53:29;3.90;;;0.80;;
24153;SDS011;12312;53.362;-1.518;2023-02-18T11:56:02;6.30;;;1.17;;
24153;SDS011;12312;53.362;-1.518;2023-02-18T11:58:40;3.92;;;1.08;;
24153;SDS011;12312;53.362;-1.518;2023-02-18T12:01:15;7.35;;;1.02;;
24153;SDS011;12312;53.362;-1.518;2023-02-18T12:04:01;9.65;;;1.20;;
24153;SDS011;12312;53.362;-1.518;2023-02-18T12:06:35;3.67;;;1.17;;
24153;SDS011;12312;53.362;-1.518;2023-02-18T12:09:08;4.65;;;1.05;;
24153;SDS011;12312;53.362;-1.518;2023-02-18T12:11:59;6.18;;;1.58;;
24153;SDS011;12312;53.362;-1.518;2023-02-18T12:14:30;4.03;;;0.82;;
24153;SDS011;12312;53.362;-1.518;2023-02-18T12:22:17;4.53;;;1.17;;
24153;SDS011;12312;53.362;-1.518;2023-02-18T12:30:31;4.90;;;1.13;;
24153;SDS011;12312;53.362;-1.518;2023-02-18T12:38:41;3.33;;;0.73;;
24153;SDS011;12312;53.362;-1.518;2023-02-18T13:06:02;4.13;;;0.82;;
24153;SDS011;12312;53.362;-1.518;2023-02-18T13:08:29;2.78;;;0.77;;
24153;SDS011;12312;53.362;-1.518;2023-02-18T13:13:57;6.10;;;0.80;;
24153;SDS011;12312;53.362;-1.518;2023-02-18T13:16:33;2.13;;;0.70;;
24153;SDS011;12312;53.362;-1.518;2023-02-18T13:19:00;3.78;;;0.82;;
24153;SDS011;12312;53.362;-1.518;2023-02-18T13:21:27;2.38;;;0.80;;
24153;SDS011;12312;53.362;-1.518;2023-02-18T13:24:02;4.88;;;0.93;;
24153;SDS011;12312;53.362;-1.518;2023-02-18T13:26:31;3.55;;;0.98;;
24153;SDS011;12312;53.362;-1.518;2023-02-18T13:32:00;2.50;;;0.73;;
24153;SDS011;12312;53.362;-1.518;2023-02-18T13:37:14;6.75;;;0.90;;
24153;SDS011;12312;53.362;-1.518;2023-02-18T13:39:47;4.40;;;0.98;;
24153;SDS011;12312;53.362;-1.518;2023-02-18T13:50:20;3.33;;;1.10;;
24153;SDS011;12312;53.362;-1.518;2023-02-18T13:55:34;2.35;;;0.65;;
24153;SDS011;12312;53.362;-1.518;2023-02-18T14:01:14;5.88;;;1.17;;
24153;SDS011;12312;53.362;-1.518;2023-02-18T14:08:47;6.82;;;1.30;;
24153;SDS011;12312;53.362;-1.518;2023-02-18T14:16:17;6.78;;;0.90;;
24153;SDS011;12312;53.362;-1.518;2023-02-18T14:26:16;5.70;;;1.42;;
24153;SDS011;12312;53.362;-1.518;2023-02-18T14:31:24;7.00;;;1.27;;
24153;SDS011;12312;53.362;-1.518;2023-02-18T14:48:34;10.27;;;1.20;;
24153;SDS011;12312;53.362;-1.518;2023-02-18T14:51:05;5.75;;;1.25;;
24153;SDS011;12312;53.362;-1.518;2023-02-18T14:53:31;4.55;;;1.40;;
24153;SDS011;12312;53.362;-1.518;2023-02-18T14:56:04;4.53;;;0.80;;
24153;SDS011;12312;53.362;-1.518;2023-02-18T14:58:34;9.30;;;1.70;;
24153;SDS011;12312;53.362;-1.518;2023-02-18T15:01:22;5.72;;;1.15;;
24153;SDS011;12312;53.362;-1.518;2023-02-18T15:03:52;5.32;;;1.10;;
24153;SDS011;12312;53.362;-1.518;2023-02-18T15:06:29;7.05;;;1.23;;
24153;SDS011;12312;53.362;-1.518;2023-02-18T15:09:18;5.38;;;1.20;;
24153;SDS011;12312;53.362;-1.518;2023-02-18T15:11:55;10.40;;;1.27;;
24153;SDS011;12312;53.362;-1.518;2023-02-18T15:14:25;4.75;;;1.23;;
24153;SDS011;12312;53.362;-1.518;2023-02-18T15:16:54;5.75;;;1.05;;
24153;SDS011;12312;53.362;-1.518;2023-02-18T15:19:22;4.38;;;0.73;;
24153;SDS011;12312;53.362;-1.518;2023-02-18T15:21:50;7.38;;;1.10;;
24153;SDS011;12312;53.362;-1.518;2023-02-18T15:24:26;4.22;;;1.10;;
24153;SDS011;12312;53.362;-1.518;2023-02-18T15:26:57;3.28;;;0.88;;
24153;SDS011;12312;53.362;-1.518;2023-02-18T15:29:25;3.88;;;0.82;;
24153;SDS011;12312;53.362;-1.518;2023-02-18T15:31:53;7.82;;;1.13;;
24153;SDS011;12312;53.362;-1.518;2023-02-18T15:36:57;7.00;;;1.38;;
24153;SDS011;12312;53.362;-1.518;2023-02-18T15:39:25;7.80;;;1.20;;
24153;SDS011;12312;53.362;-1.518;2023-02-18T15:41:54;8.10;;;1.30;;
24153;SDS011;12312;53.362;-1.518;2023-02-18T15:44:27;5.43;;;1.30;;
24153;SDS011;12312;53.362;-1.518;2023-02-18T15:46:54;6.25;;;1.08;;
24153;SDS011;12312;53.362;-1.518;2023-02-18T15:49:23;9.02;;;1.60;;
24153;SDS011;12312;53.362;-1.518;2023-02-18T15:51:49;11.15;;;1.35;;
24153;SDS011;12312;53.362;-1.518;2023-02-18T15:54:20;5.80;;;1.20;;
24153;SDS011;12312;53.362;-1.518;2023-02-18T15:56:50;8.93;;;1.40;;
24153;SDS011;12312;53.362;-1.518;2023-02-18T16:01:55;3.60;;;1.15;;
24153;SDS011;12312;53.362;-1.518;2023-02-18T16:04:30;8.07;;;2.22;;
24153;SDS011;12312;53.362;-1.518;2023-02-18T16:06:59;8.30;;;2.70;;
24153;SDS011;12312;53.362;-1.518;2023-02-18T16:09:31;5.82;;;1.27;;
24153;SDS011;12312;53.362;-1.518;2023-02-18T16:11:58;7.82;;;1.35;;
24153;SDS011;12312;53.362;-1.518;2023-02-18T16:14:46;9.13;;;2.28;;
24153;SDS011;12312;53.362;-1.518;2023-02-18T16:17:17;14.23;;;2.38;;
24153;SDS011;12312;53.362;-1.518;2023-02-18T16:19:56;10.32;;;2.08;;
24153;SDS011;12312;53.362;-1.518;2023-02-18T16:22:29;8.30;;;1.85;;
24153;SDS011;12312;53.362;-1.518;2023-02-18T16:25:07;9.82;;;3.60;;
24153;SDS011;12312;53.362;-1.518;2023-02-18T16:27:45;7.97;;;1.80;;
24153;SDS011;12312;53.362;-1.518;2023-02-18T16:30:31;5.35;;;1.50;;
24153;SDS011;12312;53.362;-1.518;2023-02-18T16:32:59;6.53;;;1.52;;
24153;SDS011;12312;53.362;-1.518;2023-02-18T16:35:28;2.80;;;0.90;;
24153;SDS011;12312;53.362;-1.518;2023-02-18T16:37:55;4.18;;;1.05;;
24153;SDS011;12312;53.362;-1.518;2023-02-18T16:43:18;7.63;;;1.88;;
24153;SDS011;12312;53.362;-1.518;2023-02-18T16:45:48;4.93;;;1.15;;
24153;SDS011;12312;53.362;-1.518;2023-02-18T16:48:19;10.73;;;2.05;;
24153;SDS011;12312;53.362;-1.518;2023-02-18T16:50:46;9.43;;;1.75;;
24153;SDS011;12312;53.362;-1.518;2023-02-18T16:53:14;13.63;;;1.58;;
24153;SDS011;12312;53.362;-1.518;2023-02-18T16:55:40;5.60;;;1.13;;
24153;SDS011;12312;53.362;-1.518;2023-02-18T16:58:05;9.57;;;2.05;;
24153;SDS011;12312;53.362;-1.518;2023-02-18T17:00:31;7.40;;;1.63;;
24153;SDS011;12312;53.362;-1.518;2023-02-18T17:02:57;4.85;;;1.52;;
24153;SDS011;12312;53.362;-1.518;2023-02-18T17:05:26;10.63;;;2.30;;
24153;SDS011;12312;53.362;-1.518;2023-02-18T17:07:54;9.10;;;2.20;;
24153;SDS011;12312;53.362;-1.518;2023-02-18T17:10:24;8.85;;;2.20;;
24153;SDS011;12312;53.362;-1.518;2023-02-18T17:12:49;8.73;;;1.52;;
24153;SDS011;12312;53.362;-1.518;2023-02-18T17:17:47;7.65;;;2.03;;
24153;SDS011;12312;53.362;-1.518;2023-02-18T17:20:13;9.35;;;1.90;;
24153;SDS011;12312;53.362;-1.518;2023-02-18T17:22:39;6.68;;;1.65;;
24153;SDS011;12312;53.362;-1.518;2023-02-18T17:25:27;11.02;;;2.35;;
24153;SDS011;12312;53.362;-1.518;2023-02-18T17:27:57;10.48;;;2.03;;
24153;SDS011;12312;53.362;-1.518;2023-02-18T17:30:23;5.50;;;1.65;;
24153;SDS011;12312;53.362;-1.518;2023-02-18T17:32:49;8.93;;;2.55;;